Time;durP1;ratioP1;P1;durP2;ratioP2;P2;SDS_P1;SDS_P2;PMS_P1;PMS_P2;Temp;Humidity;BMP_temperature;BMP_pressure;BME280_temperature;BME280_humidity;BME280_pressure;Samples;Min_cycle;Max_cycle;Signal;HPM_P1;HPM_P2
2023/10/15 00:00:19;;;;;;;9.20;5.47;;;;;;;24.00;45.54;99165.78;4484944;32;33873;-64
2023/10/15 00:02:48;;;;;;;10.35;5.68;;;;;;;23.99;45.61;99161.44;4485087;32;33928;-62
2023/10/15 00:05:21;;;;;;;7.25;4.90;;;;;;;24.01;45.60;99166.62;4484673;32;33973;-64
2023/10/15 00:07:49;;;;;;;8.20;5.35;;;;;;;24.01;45.61;99158.44;4484490;32;34812;-64
2023/10/15 00:10:19;;;;;;;8.60;5.32;;;;;;;24.02;45.69;99177.28;4484948;32;33576;-65
2023/10/15 00:12:49;;;;;;;8.77;4.85;;;;;;;24.01;45.59;99183.78;4484971;32;33955;-64
2023/10/15 00:15:20;;;;;;;9.32;5.07;;;;;;;24.00;45.59;99198.50;4484831;32;34032;-65
2023/10/15 00:17:51;;;;;;;8.55;5.40;;;;;;;24.01;45.57;99197.41;4485159;32;33986;-64
2023/10/15 00:20:20;;;;;;;10.05;5.05;;;;;;;24.01;45.50;99211.03;4484824;32;33660;-61
2023/10/15 00:22:48;;;;;;;10.02;5.25;;;;;;;24.00;45.41;99217.56;4484887;32;33925;-61
2023/10/15 00:25:19;;;;;;;7.10;4.37;;;;;;;24.02;45.43;99228.25;4484891;32;33882;-63
2023/10/15 00:27:54;;;;;;;8.85;5.07;;;;;;;24.00;45.48;99228.47;4484758;32;34598;-63
2023/10/15 00:30:31;;;;;;;7.80;4.68;;;;;;;24.01;45.49;99241.03;4484774;32;34137;-64
2023/10/15 00:33:06;;;;;;;6.90;4.75;;;;;;;24.00;45.54;99247.53;4459846;32;34754;-62
2023/10/15 00:35:34;;;;;;;8.20;4.40;;;;;;;24.01;45.48;99251.09;4484724;32;34629;-62
2023/10/15 00:38:19;;;;;;;9.05;4.07;;;;;;;24.00;45.45;99238.56;4484873;32;33749;-62
2023/10/15 00:40:53;;;;;;;7.20;4.03;;;;;;;24.01;45.44;99224.66;4484725;32;33365;-62
2023/10/15 00:43:22;;;;;;;6.55;4.05;;;;;;;24.00;45.38;99214.03;4484773;32;33892;-64
2023/10/15 00:45:51;;;;;;;6.72;4.07;;;;;;;24.00;45.38;99223.03;4484703;32;34504;-63
2023/10/15 00:48:24;;;;;;;8.48;4.10;;;;;;;24.00;45.43;99233.09;4484749;32;34302;-63
2023/10/15 00:50:53;;;;;;;9.75;3.60;;;;;;;24.02;45.40;99247.31;4484458;32;33329;-64
2023/10/15 00:53:22;;;;;;;6.10;3.60;;;;;;;24.00;45.40;99236.66;4457654;32;33929;-64
2023/10/15 00:55:49;;;;;;;6.12;3.35;;;;;;;24.01;45.40;99238.28;4484740;32;34646;-65
2023/10/15 01:03:55;;;;;;;7.28;3.15;;;;;;;24.00;45.37;99246.72;4484685;32;33845;-62
2023/10/15 01:06:30;;;;;;;6.85;3.40;;;;;;;24.00;45.39;99254.91;4484737;32;33797;-62
2023/10/15 01:09:09;;;;;;;5.82;3.00;;;;;;;24.00;45.36;99263.91;4484593;32;33643;-62
2023/10/15 01:11:44;;;;;;;5.35;3.47;;;;;;;24.00;45.33;99247.53;4481182;32;33327;-62
2023/10/15 01:14:13;;;;;;;4.78;2.83;;;;;;;24.01;45.34;99251.09;4478298;32;33828;-62
2023/10/15 01:16:40;;;;;;;5.47;2.95;;;;;;;24.00;45.29;99253.00;4484121;32;34772;-64
2023/10/15 01:22:04;;;;;;;6.50;3.45;;;;;;;24.00;45.17;99250.28;4484561;32;33484;-65
2023/10/15 01:24:38;;;;;;;5.60;3.17;;;;;;;24.01;45.17;99245.66;4484485;32;33857;-64
2023/10/15 01:27:11;;;;;;;5.43;2.45;;;;;;;24.01;45.09;99232.03;4484548;32;34099;-63
2023/10/15 01:29:47;;;;;;;6.68;2.70;;;;;;;24.01;44.97;99237.47;4479861;32;34464;-65
2023/10/15 01:32:18;;;;;;;4.62;2.58;;;;;;;23.99;45.02;99243.19;4478830;32;33616;-65
2023/10/15 01:34:48;;;;;;;4.07;2.28;;;;;;;24.00;44.98;99253.00;4484404;32;33838;-64
2023/10/15 01:40:00;;;;;;;4.53;2.33;;;;;;;23.98;45.11;99260.59;4484459;32;33590;-65
2023/10/15 01:47:45;;;;;;;4.53;2.37;;;;;;;23.98;45.00;99268.78;4482614;32;33887;-62
2023/10/15 01:50:15;;;;;;;4.85;2.45;;;;;;;23.98;45.05;99271.50;4484064;32;34536;-64
2023/10/15 01:52:43;;;;;;;4.35;2.10;;;;;;;23.98;44.94;99290.59;4484326;32;34357;-62
2023/10/15 01:55:13;;;;;;;3.85;2.45;;;;;;;23.97;44.94;99291.66;4484197;32;33525;-63
2023/10/15 01:57:41;;;;;;;4.40;2.20;;;;;;;23.97;44.95;99293.53;4483320;32;33806;-62
2023/10/15 02:00:44;;;;;;;3.30;2.10;;;;;;;23.98;44.90;99287.84;4484295;32;33797;-63
2023/10/15 02:03:06;;;;;;;4.45;2.03;;;;;;;23.98;44.91;99276.94;4475498;32;34097;-62
2023/10/15 02:05:44;;;;;;;6.53;2.17;;;;;;;23.98;44.87;99282.41;4483979;32;33816;-62
2023/10/15 02:08:23;;;;;;;4.65;1.90;;;;;;;23.99;44.79;99280.50;4493859;31;34060;-61
2023/10/15 02:10:52;;;;;;;4.72;2.55;;;;;;;23.97;44.80;99280.75;4499668;31;33642;-62
2023/10/15 02:13:26;;;;;;;3.12;1.70;;;;;;;23.97;44.80;99280.75;4468437;32;34136;-62
2023/10/15 02:15:55;;;;;;;3.62;2.30;;;;;;;23.96;44.77;99268.19;4469962;32;34576;-61
2023/10/15 02:18:29;;;;;;;4.60;1.95;;;;;;;23.96;44.72;99262.72;4470143;32;33483;-62
2023/10/15 02:23:25;;;;;;;3.28;1.67;;;;;;;23.96;44.81;99265.44;4484160;32;33344;-62
2023/10/15 02:25:57;;;;;;;3.08;1.60;;;;;;;23.95;44.88;99255.63;4483993;32;33896;-62
2023/10/15 02:28:31;;;;;;;5.20;1.52;;;;;;;23.95;44.84;99260.25;4469744;32;34162;-62
2023/10/15 02:31:14;;;;;;;2.90;1.40;;;;;;;23.95;44.83;99276.59;4482772;32;33809;-61
2023/10/15 02:33:42;;;;;;;3.67;1.90;;;;;;;23.94;44.79;99273.06;4483863;32;34053;-62
2023/10/15 02:36:15;;;;;;;3.40;1.60;;;;;;;23.93;44.78;99266.78;4483596;32;33851;-62
2023/10/15 02:39:22;;;;;;;4.32;1.35;;;;;;;23.93;44.87;99279.59;4483807;32;33580;-61
2023/10/15 02:41:43;;;;;;;3.30;1.50;;;;;;;23.93;44.96;99288.59;4481830;32;33679;-62
2023/10/15 02:44:18;;;;;;;4.03;1.60;;;;;;;23.94;44.95;99292.13;4483776;32;34395;-64
2023/10/15 02:46:50;;;;;;;3.37;1.62;;;;;;;23.93;44.90;99294.03;4482530;32;33442;-62
2023/10/15 02:49:18;;;;;;;3.35;1.70;;;;;;;23.93;44.91;99298.66;4467832;32;34791;-63
2023/10/15 02:51:47;;;;;;;2.35;1.30;;;;;;;23.93;44.93;99295.94;4467834;32;33956;-62
2023/10/15 02:54:18;;;;;;;2.87;1.42;;;;;;;23.93;45.02;99301.38;4467810;32;33099;-62
2023/10/15 02:56:47;;;;;;;3.47;1.50;;;;;;;23.93;44.96;99309.56;4467774;32;33646;-62
2023/10/15 02:59:16;;;;;;;3.12;1.75;;;;;;;23.92;44.99;99314.19;4467672;32;34732;-63
2023/10/15 03:01:47;;;;;;;2.62;1.40;;;;;;;23.92;45.05;99313.31;4467815;32;33614;-62
2023/10/15 03:04:32;;;;;;;2.95;1.58;;;;;;;23.92;44.91;99316.91;4458343;32;33343;-62
2023/10/15 03:07:17;;;;;;;5.45;1.65;;;;;;;23.92;44.92;99325.06;4481649;32;34550;-62
2023/10/15 03:09:48;;;;;;;3.62;1.48;;;;;;;23.92;44.89;99310.59;4483396;32;33922;-62
2023/10/15 03:12:18;;;;;;;3.15;1.85;;;;;;;23.91;44.95;99312.50;4469463;32;33829;-62
2023/10/15 03:14:45;;;;;;;3.08;1.40;;;;;;;23.91;45.01;99300.78;4483179;32;34285;-63
2023/10/15 03:17:24;;;;;;;2.62;1.30;;;;;;;23.90;45.03;99289.06;4483028;32;34644;-62
2023/10/15 03:19:56;;;;;;;4.03;1.23;;;;;;;23.91;45.01;99289.88;4483212;32;34746;-62
2023/10/15 03:22:30;;;;;;;5.47;1.58;;;;;;;23.93;44.98;99290.47;4471611;32;33995;-62
2023/10/15 03:24:59;;;;;;;2.15;1.20;;;;;;;23.91;44.98;99292.59;4467405;32;34170;-63
2023/10/15 03:27:27;;;;;;;2.72;1.15;;;;;;;23.91;44.99;99293.44;4467292;32;33887;-62
2023/10/15 03:29:56;;;;;;;3.20;1.35;;;;;;;23.91;44.97;99292.59;4467250;32;34116;-62
2023/10/15 03:32:31;;;;;;;1.75;1.30;;;;;;;23.90;44.92;99290.94;4453448;32;34781;-62
2023/10/15 03:35:07;;;;;;;3.12;1.30;;;;;;;23.90;44.86;99294.50;4467119;32;33306;-62
2023/10/15 03:37:45;;;;;;;2.22;1.20;;;;;;;23.89;44.86;99301.03;4467232;32;34249;-62
2023/10/15 03:43:15;;;;;;;4.18;1.12;;;;;;;23.88;44.88;99293.94;4469549;32;33982;-63
2023/10/15 03:45:52;;;;;;;3.28;1.17;;;;;;;23.89;44.86;99298.31;4469420;32;33236;-63
2023/10/15 03:48:35;;;;;;;3.03;1.25;;;;;;;23.88;44.80;99306.72;4475386;32;34756;-62
2023/10/15 03:51:05;;;;;;;3.35;1.25;;;;;;;23.87;44.75;99299.59;4472039;32;33979;-62
2023/10/15 03:53:35;;;;;;;3.28;1.42;;;;;;;23.87;44.76;99310.50;4470895;32;33518;-62
2023/10/15 03:56:06;;;;;;;2.22;1.20;;;;;;;23.88;44.74;99301.28;4476196;32;33338;-63
2023/10/15 03:58:33;;;;;;;3.70;1.40;;;;;;;23.89;44.80;99300.19;4455710;32;34803;-63
2023/10/15 04:01:21;;;;;;;3.15;1.30;;;;;;;23.87;44.94;99286.81;4469323;32;34819;-62
2023/10/15 04:03:49;;;;;;;3.25;1.70;;;;;;;23.88;44.86;99277.59;4469303;32;34661;-62
2023/10/15 04:06:18;;;;;;;2.80;1.30;;;;;;;23.88;44.87;99283.03;4469405;32;34344;-62
2023/10/15 04:11:42;;;;;;;5.97;2.12;;;;;;;23.86;44.82;99276.97;4469261;32;34505;-62
2023/10/15 04:16:50;;;;;;;2.45;1.20;;;;;;;23.87;44.67;99270.47;4469290;32;33189;-62
2023/10/15 04:19:18;;;;;;;3.28;1.40;;;;;;;23.87;44.83;99275.91;4469037;32;34746;-62
2023/10/15 04:21:46;;;;;;;3.80;1.40;;;;;;;23.88;44.74;99284.94;4469264;32;33966;-62
2023/10/15 04:24:16;;;;;;;2.15;1.10;;;;;;;23.87;44.78;99294.16;4469187;32;33931;-62
2023/10/15 04:26:48;;;;;;;3.50;1.08;;;;;;;23.86;44.76;99304.22;4469038;32;34374;-66
2023/10/15 04:29:16;;;;;;;3.67;1.50;;;;;;;23.86;44.54;99308.84;4470508;32;34838;-62
2023/10/15 04:31:51;;;;;;;3.60;1.50;;;;;;;23.87;44.56;99319.50;4471929;32;34776;-63
2023/10/15 04:34:19;;;;;;;3.97;0.90;;;;;;;23.87;44.53;99315.94;4468546;32;34682;-63
2023/10/15 04:36:48;;;;;;;3.28;1.37;;;;;;;23.85;44.33;99318.91;4478379;32;33347;-63
2023/10/15 04:39:16;;;;;;;4.82;1.35;;;;;;;23.85;44.29;99313.47;4478428;32;34618;-64
2023/10/15 04:41:56;;;;;;;3.35;1.05;;;;;;;23.87;44.22;99310.50;4476687;32;33975;-62
2023/10/15 04:44:31;;;;;;;2.45;1.50;;;;;;;23.85;44.07;99302.56;4442682;32;33567;-63
2023/10/15 04:47:05;;;;;;;2.53;1.23;;;;;;;23.85;44.08;99301.75;4468640;32;33140;-64
2023/10/15 04:49:32;;;;;;;2.30;1.15;;;;;;;23.85;44.03;99293.56;4470790;32;34094;-64
2023/10/15 04:52:00;;;;;;;3.80;1.75;;;;;;;23.84;44.21;99302.81;4476076;32;34733;-65
2023/10/15 04:54:28;;;;;;;4.05;1.35;;;;;;;23.85;44.23;99318.09;4484754;32;33842;-64
2023/10/15 04:56:55;;;;;;;4.28;1.50;;;;;;;23.83;44.06;99329.25;4479281;32;33338;-65
2023/10/15 04:59:23;;;;;;;2.87;1.30;;;;;;;23.83;43.91;99337.41;4484356;32;33668;-63
2023/10/15 05:01:51;;;;;;;3.67;1.45;;;;;;;23.83;43.93;99345.59;4476863;32;33445;-65
2023/10/15 05:04:18;;;;;;;3.67;1.35;;;;;;;23.84;43.93;99354.59;4484540;32;34776;-64
2023/10/15 05:06:46;;;;;;;3.78;1.52;;;;;;;23.83;43.92;99375.56;4474689;32;33840;-63
2023/10/15 05:09:21;;;;;;;3.62;1.33;;;;;;;23.83;43.61;99377.47;4469000;32;33902;-64
2023/10/15 05:11:53;;;;;;;3.35;1.37;;;;;;;23.82;43.65;99373.88;4468203;32;33878;-64
2023/10/15 05:14:20;;;;;;;5.32;1.65;;;;;;;23.82;43.47;99371.16;4477244;32;34936;-63
2023/10/15 05:16:48;;;;;;;5.15;1.40;;;;;;;23.80;43.39;99359.69;4484604;32;33781;-65
2023/10/15 05:19:19;;;;;;;3.35;1.48;;;;;;;23.80;43.37;99351.50;4474960;32;34369;-64
2023/10/15 05:21:46;;;;;;;3.37;1.60;;;;;;;23.80;43.49;99356.13;4470781;32;34575;-65
2023/10/15 05:24:21;;;;;;;2.87;1.65;;;;;;;23.80;43.54;99345.25;4476349;32;33935;-65
2023/10/15 05:26:48;;;;;;;4.43;1.30;;;;;;;23.80;43.55;99345.25;4473909;32;34403;-64
2023/10/15 05:29:16;;;;;;;6.82;1.60;;;;;;;23.80;43.46;99362.41;4483016;32;33959;-65
2023/10/15 05:31:44;;;;;;;3.80;1.25;;;;;;;23.79;43.41;99368.09;4482026;32;34030;-64
2023/10/15 05:34:11;;;;;;;7.60;2.08;;;;;;;23.79;43.32;99382.56;4468605;32;34382;-63
2023/10/15 05:36:40;;;;;;;6.28;1.95;;;;;;;23.79;43.33;99398.91;4468593;32;34165;-65
2023/10/15 05:39:08;;;;;;;7.57;1.48;;;;;;;23.78;43.10;99388.22;4475253;32;34641;-62
2023/10/15 05:41:37;;;;;;;6.65;1.70;;;;;;;23.77;43.01;99384.66;4468676;32;34379;-64
2023/10/15 05:44:05;;;;;;;4.70;1.50;;;;;;;23.78;43.21;99389.06;4468359;32;34291;-67
2023/10/15 05:46:33;;;;;;;2.75;1.30;;;;;;;23.79;43.21;99408.97;4468714;32;33420;-65
2023/10/15 05:49:01;;;;;;;3.53;1.50;;;;;;;23.78;43.29;99399.97;4474563;32;33860;-66
2023/10/15 05:51:28;;;;;;;4.28;1.40;;;;;;;23.79;43.32;99403.53;4468605;32;34955;-65
2023/10/15 05:53:57;;;;;;;3.90;1.60;;;;;;;23.78;43.39;99397.25;4478266;32;34282;-64
2023/10/15 05:56:26;;;;;;;7.40;1.85;;;;;;;23.79;43.33;99408.97;4479692;32;33566;-64
2023/10/15 05:58:53;;;;;;;6.28;2.05;;;;;;;23.80;43.15;99425.06;4491962;31;33746;-64
2023/10/15 06:01:21;;;;;;;5.25;1.80;;;;;;;23.79;43.05;99447.13;4493156;31;33583;-64
2023/10/15 06:03:50;;;;;;;5.72;1.30;;;;;;;23.78;42.84;99443.56;4470414;32;34671;-66
2023/10/15 06:06:17;;;;;;;4.20;1.60;;;;;;;23.79;43.02;99447.13;4468505;32;34493;-67
2023/10/15 06:08:46;;;;;;;2.78;1.55;;;;;;;23.75;42.83;99444.03;4471721;32;33925;-67
2023/10/15 06:11:14;;;;;;;6.93;1.58;;;;;;;23.76;42.78;99450.31;4469872;32;34002;-64
2023/10/15 06:13:41;;;;;;;4.78;1.55;;;;;;;23.76;42.90;99451.13;4468255;32;33666;-63
2023/10/15 06:16:09;;;;;;;4.12;1.67;;;;;;;23.76;42.90;99453.84;4474437;31;34087;-63
2023/10/15 06:18:37;;;;;;;6.03;1.45;;;;;;;23.75;43.08;99452.19;4484858;31;33973;-63
2023/10/15 06:21:04;;;;;;;5.53;1.65;;;;;;;23.76;43.00;99451.13;4479009;32;33901;-62
2023/10/15 06:23:32;;;;;;;3.53;1.50;;;;;;;23.76;43.01;99453.03;4478960;32;33806;-64
2023/10/15 06:25:59;;;;;;;4.75;1.73;;;;;;;23.77;43.12;99449.22;4478741;32;33445;-62
2023/10/15 06:28:27;;;;;;;5.57;1.83;;;;;;;23.77;43.00;99443.78;4480637;32;33830;-65
2023/10/15 06:30:55;;;;;;;6.53;1.77;;;;;;;23.77;42.53;99439.16;4470255;32;33919;-61
2023/10/15 06:33:23;;;;;;;7.12;2.22;;;;;;;23.77;42.29;99425.53;4473722;31;33541;-64
2023/10/15 06:35:51;;;;;;;6.05;2.10;;;;;;;23.77;42.54;99432.88;4467505;32;33704;-62
2023/10/15 06:38:18;;;;;;;6.70;1.75;;;;;;;23.77;42.70;99432.88;4482945;31;34653;-64
2023/10/15 06:40:46;;;;;;;4.82;1.70;;;;;;;23.77;42.75;99428.25;4466891;32;33594;-62
2023/10/15 06:43:15;;;;;;;3.55;1.60;;;;;;;23.76;42.71;99437.50;4468832;32;33610;-63
2023/10/15 06:45:42;;;;;;;4.97;1.50;;;;;;;23.76;42.72;99440.22;4483040;32;33990;-62
2023/10/15 06:48:10;;;;;;;5.53;1.58;;;;;;;23.77;42.73;99446.50;4481081;32;33976;-62
2023/10/15 06:50:38;;;;;;;4.82;1.52;;;;;;;23.76;42.55;99451.13;4467776;32;34695;-63
2023/10/15 06:53:05;;;;;;;6.97;1.87;;;;;;;23.75;42.52;99424.13;4466422;32;34272;-62
2023/10/15 06:55:33;;;;;;;5.00;1.50;;;;;;;23.75;42.49;99418.69;4481437;32;34429;-63
2023/10/15 06:58:01;;;;;;;5.22;2.00;;;;;;;23.75;42.57;99415.97;4466403;32;33805;-64
2023/10/15 07:00:31;;;;;;;4.22;1.70;;;;;;;23.75;42.40;99427.69;4466851;32;33977;-64
2023/10/15 07:02:59;;;;;;;4.60;1.80;;;;;;;23.73;42.39;99409.91;4471019;32;34772;-62
2023/10/15 07:05:27;;;;;;;5.00;1.58;;;;;;;23.74;42.00;99406.97;4474217;32;33930;-62
2023/10/15 07:07:58;;;;;;;5.90;1.30;;;;;;;23.76;42.39;99414.87;4489698;31;34428;-65
2023/10/15 07:10:27;;;;;;;6.50;2.00;;;;;;;23.73;42.53;99405.28;4482353;31;33838;-64
2023/10/15 07:12:56;;;;;;;3.78;1.58;;;;;;;23.75;42.30;99399.63;4466219;32;33755;-64
2023/10/15 07:15:23;;;;;;;5.20;1.60;;;;;;;23.75;42.26;99396.88;4482526;32;34039;-64
2023/10/15 07:17:52;;;;;;;4.25;1.70;;;;;;;23.75;42.33;99440.47;4483798;32;34655;-65
2023/10/15 07:20:26;;;;;;;4.18;1.50;;;;;;;23.74;42.23;99471.50;4470460;32;33801;-63
2023/10/15 07:22:56;;;;;;;4.15;1.52;;;;;;;23.74;42.30;99476.97;4484502;32;33740;-64
2023/10/15 07:25:24;;;;;;;4.75;1.73;;;;;;;23.76;42.04;99486.53;4495787;31;34072;-63
2023/10/15 07:27:57;;;;;;;5.65;1.98;;;;;;;23.77;42.49;99496.38;4474480;32;33576;-64
2023/10/15 07:30:25;;;;;;;8.27;1.98;;;;;;;23.75;42.60;99500.41;4454983;32;33817;-63
2023/10/15 07:32:53;;;;;;;4.30;1.50;;;;;;;23.76;42.50;99496.59;4454530;32;33382;-64
2023/10/15 07:35:21;;;;;;;4.75;1.60;;;;;;;23.76;42.51;99502.06;4442231;32;34244;-64
2023/10/15 07:37:49;;;;;;;7.43;1.95;;;;;;;23.75;42.40;99501.22;4469019;32;33501;-62
2023/10/15 07:40:22;;;;;;;4.12;1.42;;;;;;;23.77;42.55;99511.88;4468280;32;34833;-61
2023/10/15 07:43:00;;;;;;;8.65;1.83;;;;;;;23.79;42.29;99512.50;4468946;32;33726;-61
2023/10/15 07:45:31;;;;;;;5.90;2.20;;;;;;;23.81;42.27;99491.28;4466696;32;34313;-62
2023/10/15 07:48:00;;;;;;;4.90;1.77;;;;;;;23.83;42.17;99491.91;4456834;32;33933;-62
2023/10/15 07:50:29;;;;;;;7.03;2.00;;;;;;;23.81;41.51;99494.84;4484436;32;33778;-63
2023/10/15 07:52:56;;;;;;;11.98;2.25;;;;;;;23.81;41.33;99483.94;4470327;32;34551;-66
2023/10/15 07:55:24;;;;;;;11.20;2.22;;;;;;;23.79;41.52;99486.09;4470566;32;34150;-68
2023/10/15 07:57:57;;;;;;;12.52;2.08;;;;;;;23.78;41.58;99483.56;4484747;32;33492;-68
2023/10/15 08:00:33;;;;;;;7.10;1.67;;;;;;;23.79;41.42;99485.25;4467655;32;33886;-69
2023/10/15 08:03:07;;;;;;;6.75;2.30;;;;;;;23.81;41.50;99480.38;4470323;32;33458;-68
2023/10/15 08:05:37;;;;;;;11.10;2.60;;;;;;;23.82;41.47;99492.94;4484546;32;33589;-69
2023/10/15 08:08:08;;;;;;;9.60;2.62;;;;;;;23.81;41.37;99473.03;4458167;32;33854;-68
2023/10/15 08:10:36;;;;;;;5.87;2.00;;;;;;;23.80;41.50;99463.22;4470275;32;33997;-69
2023/10/15 08:13:06;;;;;;;7.72;1.95;;;;;;;23.80;42.12;99473.28;4470883;32;33338;-70
2023/10/15 08:15:34;;;;;;;8.30;1.73;;;;;;;23.81;42.38;99483.94;4454255;32;33909;-64
2023/10/15 08:18:03;;;;;;;6.57;2.30;;;;;;;23.82;42.51;99484.75;4468962;32;33925;-64
2023/10/15 08:20:33;;;;;;;8.52;3.00;;;;;;;23.81;42.86;99488.56;4484217;32;34813;-65
2023/10/15 08:23:01;;;;;;;6.37;2.08;;;;;;;23.80;43.16;99485.00;4457496;32;34093;-65
2023/10/15 08:25:31;;;;;;;7.85;2.42;;;;;;;23.82;43.18;99484.75;4484238;32;32931;-64
2023/10/15 08:28:02;;;;;;;7.05;2.80;;;;;;;23.79;42.72;99480.63;4484069;31;33928;-65
2023/10/15 08:30:34;;;;;;;7.30;2.77;;;;;;;23.79;42.26;99477.09;4485998;31;34512;-68
2023/10/15 08:33:03;;;;;;;7.97;2.45;;;;;;;23.79;41.71;99486.09;4485780;31;34731;-67
2023/10/15 08:35:31;;;;;;;11.63;2.92;;;;;;;23.80;41.79;99484.19;4500004;31;33612;-66
2023/10/15 08:38:00;;;;;;;8.65;2.03;;;;;;;23.78;41.49;99478.97;4485638;31;33823;-66
2023/10/15 08:40:30;;;;;;;7.75;3.30;;;;;;;23.77;41.87;99482.75;4485949;31;34464;-67
2023/10/15 08:43:02;;;;;;;7.93;2.33;;;;;;;23.77;42.00;99492.81;4458398;32;33707;-67
2023/10/15 08:45:29;;;;;;;8.93;2.70;;;;;;;23.77;41.28;99492.81;4470197;32;34100;-67
2023/10/15 08:48:01;;;;;;;7.00;2.22;;;;;;;23.75;40.90;99494.97;4457812;32;34622;-68
2023/10/15 08:50:29;;;;;;;8.65;2.30;;;;;;;23.73;40.97;99487.00;4469905;32;33806;-66
2023/10/15 08:52:57;;;;;;;7.45;2.50;;;;;;;23.73;40.95;99491.63;4484033;32;33761;-69
2023/10/15 08:55:25;;;;;;;5.93;2.37;;;;;;;23.73;40.65;99491.63;4466797;32;33125;-70
2023/10/15 08:57:54;;;;;;;7.50;2.17;;;;;;;23.72;41.01;99503.59;4468355;32;33906;-70
2023/10/15 09:00:26;;;;;;;7.57;2.30;;;;;;;23.71;41.46;99497.31;4470531;32;33817;-66
2023/10/15 09:03:02;;;;;;;8.15;2.20;;;;;;;23.72;41.39;99489.97;4482432;31;34133;-68
2023/10/15 09:05:33;;;;;;;10.25;2.75;;;;;;;23.72;41.62;99484.53;4465972;32;33341;-70
2023/10/15 09:08:07;;;;;;;6.93;2.25;;;;;;;23.72;41.67;99477.19;4469540;32;33674;-67
2023/10/15 09:10:43;;;;;;;11.95;2.22;;;;;;;23.72;41.81;99468.19;4454226;32;33889;-68
2023/10/15 09:13:14;;;;;;;8.02;2.15;;;;;;;23.71;41.99;99471.97;4478333;31;34365;-67
2023/10/15 09:15:47;;;;;;;6.60;2.42;;;;;;;23.70;41.54;99462.97;4499141;31;33919;-64
2023/10/15 09:18:17;;;;;;;8.80;2.25;;;;;;;23.70;41.81;99468.44;4484672;31;33857;-65
2023/10/15 09:20:50;;;;;;;7.65;2.30;;;;;;;23.72;41.84;99463.56;4483590;32;34130;-64
2023/10/15 09:23:22;;;;;;;6.12;2.10;;;;;;;23.72;41.88;99466.28;4483230;32;34436;-69
2023/10/15 09:25:55;;;;;;;8.27;2.03;;;;;;;23.72;41.86;99485.34;4465178;32;34155;-64
2023/10/15 09:28:27;;;;;;;9.50;2.45;;;;;;;23.73;41.88;99483.44;4464868;32;34004;-64
2023/10/15 09:31:06;;;;;;;8.88;2.25;;;;;;;23.71;41.79;99494.59;4470304;32;34389;-63
2023/10/15 09:33:34;;;;;;;6.75;2.25;;;;;;;23.73;41.56;99491.63;4482808;32;33922;-64
2023/10/15 09:36:05;;;;;;;7.95;2.50;;;;;;;23.73;41.63;99484.28;4482986;32;33422;-64
2023/10/15 09:38:32;;;;;;;5.53;2.10;;;;;;;23.72;41.32;99476.34;4482561;32;34507;-65
2023/10/15 09:41:01;;;;;;;6.40;2.30;;;;;;;23.73;41.26;99467.09;4481036;32;33831;-64
2023/10/15 09:43:31;;;;;;;6.75;2.17;;;;;;;23.72;40.99;99477.19;4483092;32;34085;-64
2023/10/15 09:45:59;;;;;;;8.27;2.50;;;;;;;23.71;40.78;99474.69;4483166;32;33233;-63
2023/10/15 09:48:27;;;;;;;7.40;1.90;;;;;;;23.71;41.02;99485.59;4468682;32;33431;-65
2023/10/15 09:50:59;;;;;;;7.40;2.15;;;;;;;23.70;41.11;99484.78;4475272;32;33910;-64
2023/10/15 09:53:28;;;;;;;6.80;2.37;;;;;;;23.70;40.92;99492.94;4483976;32;33560;-65
2023/10/15 09:56:04;;;;;;;6.85;2.35;;;;;;;23.71;40.78;99496.50;4470003;32;34056;-63
2023/10/15 09:58:34;;;;;;;4.95;2.30;;;;;;;23.71;40.71;99499.22;4483777;32;34748;-65
2023/10/15 10:01:28;;;;;;;7.70;2.50;;;;;;;23.71;41.12;99512.84;4469621;32;33981;-64
2023/10/15 10:04:05;;;;;;;7.18;2.15;;;;;;;23.66;40.79;99517.09;4471457;32;34561;-64
2023/10/15 10:07:10;;;;;;;8.05;2.20;;;;;;;23.67;40.84;99510.56;4471950;32;34149;-67
2023/10/15 10:09:51;;;;;;;5.00;1.83;;;;;;;23.71;40.43;99510.12;4468061;32;33851;-66
2023/10/15 10:12:34;;;;;;;5.47;2.30;;;;;;;23.67;40.34;99501.56;4465390;32;34758;-63
2023/10/15 10:15:15;;;;;;;4.40;1.73;;;;;;;23.68;40.45;99512.22;4478257;32;32770;-66
2023/10/15 10:17:43;;;;;;;6.78;1.92;;;;;;;23.68;40.74;99505.94;4468620;32;32423;-64
2023/10/15 10:20:13;;;;;;;5.45;1.92;;;;;;;23.66;40.87;99513.53;4466567;32;34455;-68
2023/10/15 10:22:41;;;;;;;5.40;1.98;;;;;;;23.66;40.88;99513.53;4481079;32;34586;-66
2023/10/15 10:25:29;;;;;;;5.87;2.10;;;;;;;23.68;40.75;99509.50;4484225;32;33827;-68
2023/10/15 10:28:08;;;;;;;6.00;2.40;;;;;;;23.70;40.90;99508.47;4469149;32;32897;-66
2023/10/15 10:30:59;;;;;;;8.70;1.98;;;;;;;23.69;40.95;99515.81;4483797;32;34528;-65
2023/10/15 10:33:45;;;;;;;5.65;2.20;;;;;;;23.68;41.06;99512.22;4483731;32;34843;-72
2023/10/15 10:36:17;;;;;;;6.82;2.15;;;;;;;23.70;41.27;99503.00;4479411;32;34865;-68
2023/10/15 10:39:00;;;;;;;8.05;2.05;;;;;;;23.67;41.41;99501.56;4483718;32;33523;-67
2023/10/15 10:41:58;;;;;;;9.02;2.55;;;;;;;23.70;41.49;99511.19;4482612;32;34627;-65
2023/10/15 10:44:26;;;;;;;6.53;2.10;;;;;;;23.74;41.50;99509.66;4462562;32;33999;-65
2023/10/15 10:46:58;;;;;;;6.87;2.37;;;;;;;23.72;41.56;99509.03;4467923;32;34607;-68
2023/10/15 10:49:30;;;;;;;6.75;2.33;;;;;;;23.72;41.65;99511.75;4468490;32;33988;-66
2023/10/15 10:52:04;;;;;;;7.78;2.55;;;;;;;23.74;41.71;99512.38;4472222;32;33776;-69
2023/10/15 10:54:36;;;;;;;4.82;1.77;;;;;;;23.76;41.70;99512.97;4477515;32;33907;-65
2023/10/15 10:57:08;;;;;;;4.85;2.12;;;;;;;23.75;41.72;99512.13;4464639;32;33103;-67
2023/10/15 10:59:44;;;;;;;8.73;2.10;;;;;;;23.79;41.73;99512.50;4463368;32;33256;-65
2023/10/15 11:02:14;;;;;;;6.85;1.87;;;;;;;23.80;41.73;99514.16;4469875;32;32955;-67
2023/10/15 11:04:42;;;;;;;5.97;1.80;;;;;;;23.81;41.72;99513.06;4468551;32;34028;-67
2023/10/15 11:07:15;;;;;;;6.95;2.30;;;;;;;23.82;41.71;99517.44;4469674;32;34503;-66
2023/10/15 11:09:42;;;;;;;10.20;2.37;;;;;;;23.84;41.39;99528.97;4469683;32;33825;-64
2023/10/15 11:12:16;;;;;;;4.65;1.90;;;;;;;23.83;41.42;99527.31;4469709;32;33976;-64
2023/10/15 11:14:44;;;;;;;7.25;2.55;;;;;;;23.83;41.38;99524.59;4469732;32;33600;-63
2023/10/15 11:17:11;;;;;;;4.75;1.70;;;;;;;23.82;41.37;99510.09;4469814;32;33456;-65
2023/10/15 11:19:40;;;;;;;4.78;1.70;;;;;;;23.82;41.30;99512.00;4469773;32;34143;-65
2023/10/15 11:22:08;;;;;;;6.93;2.20;;;;;;;23.82;41.24;99512.81;4455430;32;32615;-64
2023/10/15 11:24:36;;;;;;;5.12;1.87;;;;;;;23.82;41.24;99512.81;4455298;32;33620;-66
2023/10/15 11:27:11;;;;;;;7.85;2.20;;;;;;;23.82;41.24;99503.84;4469689;32;33615;-66
2023/10/15 11:29:39;;;;;;;5.15;1.98;;;;;;;23.81;41.27;99510.34;4468563;32;33084;-67
2023/10/15 11:32:08;;;;;;;5.70;2.25;;;;;;;23.80;41.31;99503.25;4469377;32;33541;-64
2023/10/15 11:34:39;;;;;;;5.65;2.10;;;;;;;23.79;41.33;99513.31;4469651;32;34185;-65
2023/10/15 11:37:09;;;;;;;6.05;2.03;;;;;;;23.81;41.35;99513.06;4469401;32;33768;-70
2023/10/15 11:42:05;;;;;;;9.52;3.10;;;;;;;23.80;40.83;99519.59;4469576;32;33316;-66
2023/10/15 11:44:37;;;;;;;9.05;2.40;;;;;;;23.79;40.03;99520.66;4455389;32;33772;-66
2023/10/15 11:47:24;;;;;;;7.80;2.75;;;;;;;23.77;39.51;99518.16;4456059;32;34012;-65
2023/10/15 11:49:54;;;;;;;8.88;2.20;;;;;;;23.77;39.33;99526.34;4472138;32;33875;-64
2023/10/15 11:52:24;;;;;;;7.53;2.40;;;;;;;23.74;39.78;99521.37;4490918;31;34551;-66
2023/10/15 11:54:52;;;;;;;6.85;2.10;;;;;;;23.74;39.92;99513.19;4498802;31;34682;-68
2023/10/15 11:57:23;;;;;;;7.45;2.45;;;;;;;23.75;39.69;99505.84;4481265;32;34967;-64
2023/10/15 11:59:52;;;;;;;6.45;2.37;;;;;;;23.74;39.60;99498.75;4485057;32;34545;-65
2023/10/15 12:02:25;;;;;;;6.62;2.37;;;;;;;23.73;39.75;99497.91;4484208;32;33405;-64
2023/10/15 12:04:56;;;;;;;8.82;2.80;;;;;;;23.74;39.87;99501.47;4469437;32;33655;-68
2023/10/15 12:07:28;;;;;;;6.00;2.17;;;;;;;23.73;39.98;99503.34;4473780;32;33846;-72
2023/10/15 12:09:57;;;;;;;6.82;2.10;;;;;;;23.74;40.03;99504.22;4499358;31;33280;-63
2023/10/15 12:12:26;;;;;;;9.02;2.37;;;;;;;23.74;40.06;99512.38;4500691;31;33494;-75
2023/10/15 12:14:54;;;;;;;9.00;2.28;;;;;;;23.73;40.21;99508.78;4500571;31;33989;-63
2023/10/15 12:17:21;;;;;;;7.15;2.47;;;;;;;23.75;40.31;99516.75;4500643;31;34872;-68
2023/10/15 12:19:49;;;;;;;4.90;1.95;;;;;;;23.74;40.39;99524.09;4493501;31;33366;-74
2023/10/15 12:22:37;;;;;;;6.45;2.22;;;;;;;23.75;40.43;99519.47;4469065;32;34463;-70